Time;durP1;ratioP1;P1;durP2;ratioP2;P2;SDS_P1;SDS_P2;PMS_P1;PMS_P2;Temp;Humidity;BMP_temperature;BMP_pressure;BME280_temperature;BME280_humidity;BME280_pressure;Samples;Min_cycle;Max_cycle;Signal;HPM_P1;HPM_P2
2021/05/20 00:00:21;;;;;;;1.20;1.20;;;14.20;40.60;;;;;;6131865;23;20449;-85
2021/05/20 00:02:47;;;;;;;2.70;1.77;;;14.20;40.80;;;;;;6131580;23;20151;-86
2021/05/20 00:05:26;;;;;;;2.33;1.70;;;14.10;40.80;;;;;;6158267;23;20451;-86
2021/05/20 00:07:51;;;;;;;1.37;1.27;;;13.80;41.60;;;;;;6131802;23;20839;-89
2021/05/20 00:10:44;;;;;;;0.87;0.87;;;13.90;41.60;;;;;;6131497;23;20398;-88
2021/05/20 00:13:10;;;;;;;1.67;1.37;;;13.50;42.00;;;;;;6131624;23;20186;-87
2021/05/20 00:15:35;;;;;;;2.37;1.30;;;13.20;43.30;;;;;;6131454;23;20419;-88
2021/05/20 00:18:06;;;;;;;1.43;1.13;;;13.00;44.10;;;;;;6131258;23;20159;-88
2021/05/20 00:20:32;;;;;;;1.50;1.00;;;12.90;44.50;;;;;;6131219;23;20602;-89
2021/05/20 00:23:32;;;;;;;2.00;1.63;;;12.80;45.10;;;;;;6131117;23;20178;-88
2021/05/20 00:25:58;;;;;;;1.40;1.30;;;12.60;45.80;;;;;;6131390;23;20175;-90
2021/05/20 00:28:30;;;;;;;4.83;1.30;;;12.50;46.00;;;;;;6133111;23;20179;-92
2021/05/20 00:30:55;;;;;;;1.33;1.23;;;12.40;46.30;;;;;;6133399;23;20155;-91
2021/05/20 00:33:43;;;;;;;1.10;0.90;;;12.60;46.30;;;;;;6133517;23;20186;-90
2021/05/20 00:36:11;;;;;;;1.98;1.17;;;12.50;46.40;;;;;;6159072;23;20132;-91
2021/05/20 00:38:38;;;;;;;1.10;1.00;;;12.20;46.10;;;;;;6133498;23;20175;-91
2021/05/20 00:41:37;;;;;;;1.77;1.15;;;12.30;46.20;;;;;;6134916;23;20158;-88
2021/05/20 01:22:32;;;;;;;1.65;1.55;;;12.70;45.00;;;;;;6160267;23;20190;-92
2021/05/20 01:25:14;;;;;;;8.60;1.43;;;12.50;46.20;;;;;;6157565;23;20156;-91
2021/05/20 01:27:42;;;;;;;1.35;1.02;;;12.50;46.20;;;;;;6155877;23;20166;-91
2021/05/20 01:30:38;;;;;;;1.02;0.90;;;12.50;46.30;;;;;;6158389;23;20156;-92
2021/05/20 01:33:04;;;;;;;1.30;1.17;;;12.50;46.40;;;;;;6156565;23;20171;-89
2021/05/20 01:38:53;;;;;;;1.42;1.27;;;12.40;45.90;;;;;;6158921;23;20351;-91
2021/05/20 01:41:26;;;;;;;1.40;1.30;;;12.80;46.40;;;;;;6158236;23;20144;-92
2021/05/20 01:43:52;;;;;;;1.20;1.10;;;12.70;46.40;;;;;;6158293;23;20230;-91
2021/05/20 01:46:19;;;;;;;1.80;1.30;;;12.40;46.40;;;;;;6159767;23;20234;-93
2021/05/20 01:52:28;;;;;;;1.67;1.33;;;12.10;47.90;;;;;;6162331;23;20583;-92
2021/05/20 01:54:54;;;;;;;2.85;0.88;;;11.90;48.40;;;;;;6160251;23;20175;-93
2021/05/20 01:57:26;;;;;;;1.40;1.30;;;12.10;48.60;;;;;;6161632;23;20148;-92
2021/05/20 01:59:52;;;;;;;1.88;1.30;;;12.10;48.60;;;;;;6163087;23;20147;-93
2021/05/20 02:09:21;;;;;;;1.67;1.52;;;11.30;48.40;;;;;;6162160;23;20183;-92
2021/05/20 02:11:46;;;;;;;1.50;1.20;;;11.80;48.80;;;;;;6161268;23;20179;-92
2021/05/20 02:14:26;;;;;;;1.97;1.47;;;12.10;48.60;;;;;;6159435;23;20178;-92
2021/05/20 02:16:52;;;;;;;2.03;1.27;;;12.30;48.60;;;;;;6160461;23;20193;-92
2021/05/20 02:19:37;;;;;;;2.50;1.60;;;12.10;47.90;;;;;;6160589;23;20144;-88
2021/05/20 02:22:21;;;;;;;1.85;1.17;;;12.00;47.50;;;;;;6158125;23;20195;-90
2021/05/20 02:24:46;;;;;;;1.20;1.00;;;12.00;47.50;;;;;;6158771;23;20207;-90
2021/05/20 02:27:12;;;;;;;1.77;1.07;;;12.20;47.30;;;;;;6158866;23;20159;-90
2021/05/20 02:33:00;;;;;;;1.98;1.10;;;12.50;47.00;;;;;;6160211;23;20615;-91
2021/05/20 02:35:37;;;;;;;1.77;1.30;;;12.40;46.80;;;;;;6158575;23;20152;-91
2021/05/20 02:38:03;;;;;;;2.00;1.20;;;12.50;46.70;;;;;;6158583;23;20159;-93
2021/05/20 02:40:29;;;;;;;1.10;1.00;;;12.40;47.30;;;;;;6159700;23;20152;-91
2021/05/20 02:42:55;;;;;;;1.53;1.30;;;12.10;47.70;;;;;;6158793;23;20471;-91
2021/05/20 02:45:29;;;;;;;1.40;1.10;;;12.20;47.70;;;;;;6158811;23;20441;-88
2021/05/20 02:47:55;;;;;;;1.67;1.15;;;12.40;48.40;;;;;;6158094;23;20383;-90
2021/05/20 02:50:23;;;;;;;1.15;1.05;;;12.30;47.20;;;;;;6159307;23;20175;-87
2021/05/20 02:52:55;;;;;;;1.08;0.90;;;12.30;47.00;;;;;;6159004;23;20148;-91
2021/05/20 02:55:24;;;;;;;1.92;1.40;;;12.50;46.80;;;;;;6161109;23;20155;-91
2021/05/20 02:58:02;;;;;;;1.63;0.93;;;12.30;47.00;;;;;;6160622;23;20139;-91
2021/05/20 03:00:33;;;;;;;1.40;1.30;;;12.20;47.20;;;;;;6161295;23;20148;-91
2021/05/20 03:03:07;;;;;;;1.50;1.40;;;12.30;47.10;;;;;;6160951;23;20175;-91
2021/05/20 03:05:33;;;;;;;1.20;1.10;;;12.20;46.70;;;;;;6161070;23;20194;-91
2021/05/20 03:08:15;;;;;;;1.57;1.40;;;12.40;47.10;;;;;;6158885;23;20474;-91
2021/05/20 03:10:41;;;;;;;1.60;1.40;;;12.30;46.70;;;;;;6159955;23;20144;-90
2021/05/20 03:13:07;;;;;;;1.07;0.90;;;12.30;46.70;;;;;;6159087;23;20202;-90
2021/05/20 03:15:39;;;;;;;2.40;1.67;;;12.30;46.80;;;;;;6159211;23;20376;-91
2021/05/20 03:18:04;;;;;;;1.40;1.30;;;12.30;46.70;;;;;;6159210;23;20235;-90
2021/05/20 03:20:42;;;;;;;2.20;1.10;;;12.20;47.00;;;;;;6159559;23;20512;-90
2021/05/20 03:23:07;;;;;;;1.02;0.93;;;12.40;47.40;;;;;;6135025;23;20235;-90
2021/05/20 03:26:01;;;;;;;1.47;1.37;;;12.20;47.50;;;;;;6135479;23;20163;-91
2021/05/20 03:28:27;;;;;;;1.58;1.48;;;12.00;48.10;;;;;;6135043;23;20159;-90
2021/05/20 03:30:52;;;;;;;1.23;1.00;;;11.90;48.10;;;;;;6135048;23;20208;-91
2021/05/20 03:33:19;;;;;;;2.87;1.43;;;12.10;48.60;;;;;;6135072;23;20183;-90
2021/05/20 03:35:45;;;;;;;2.05;1.85;;;12.10;49.10;;;;;;6134780;23;20152;-90
2021/05/20 03:38:13;;;;;;;1.47;1.37;;;12.00;49.00;;;;;;6134094;23;20271;-90
2021/05/20 03:40:38;;;;;;;2.70;1.20;;;12.10;49.60;;;;;;6135884;23;20148;-90
2021/05/20 03:43:36;;;;;;;1.30;1.20;;;12.30;49.30;;;;;;6134087;23;20394;-90
2021/05/20 03:46:02;;;;;;;1.45;1.35;;;12.50;49.40;;;;;;6135195;23;20214;-90
2021/05/20 03:48:34;;;;;;;2.05;1.05;;;12.70;49.10;;;;;;6134108;23;20155;-91
2021/05/20 03:51:03;;;;;;;1.20;1.00;;;12.60;48.90;;;;;;6134089;23;20603;-90
2021/05/20 03:54:13;;;;;;;2.58;1.27;;;12.60;48.60;;;;;;6133947;23;20176;-90
2021/05/20 03:56:38;;;;;;;1.60;1.50;;;13.00;48.60;;;;;;6133408;23;20208;-90
2021/05/20 03:59:05;;;;;;;1.17;1.07;;;12.90;47.80;;;;;;6134112;23;20151;-90
2021/05/20 04:01:31;;;;;;;1.47;1.27;;;13.00;47.60;;;;;;6133875;23;20152;-91
2021/05/20 04:03:56;;;;;;;1.10;1.00;;;12.90;47.70;;;;;;6133269;23;20521;-90
2021/05/20 04:06:29;;;;;;;1.37;1.27;;;13.10;48.20;;;;;;6133467;23;20158;-89
2021/05/20 04:08:55;;;;;;;1.10;1.00;;;13.00;48.10;;;;;;6132226;23;20593;-87
2021/05/20 04:11:43;;;;;;;2.10;1.30;;;13.10;48.10;;;;;;6132347;23;20458;-91
2021/05/20 04:14:09;;;;;;;3.13;1.45;;;13.10;47.80;;;;;;6132473;23;20489;-90
2021/05/20 04:16:34;;;;;;;2.00;1.00;;;13.10;47.90;;;;;;6132487;23;20155;-87
2021/05/20 04:19:50;;;;;;;1.90;0.90;;;13.10;47.70;;;;;;6131948;23;20376;-87
2021/05/20 04:22:16;;;;;;;1.40;1.30;;;12.90;47.70;;;;;;6131696;23;20199;-89
2021/05/20 04:24:42;;;;;;;1.57;1.27;;;13.00;48.20;;;;;;6132641;23;20160;-89
2021/05/20 04:27:36;;;;;;;1.67;1.30;;;13.00;48.50;;;;;;6133378;23;20402;-90
2021/05/20 04:30:03;;;;;;;1.50;1.17;;;13.00;47.90;;;;;;6134797;23;20210;-88
2021/05/20 04:32:29;;;;;;;1.53;1.43;;;13.00;48.20;;;;;;6132699;23;20379;-87
2021/05/20 04:35:06;;;;;;;2.30;1.10;;;13.00;48.10;;;;;;6132719;23;20813;-88
2021/05/20 04:37:32;;;;;;;1.05;0.90;;;13.30;48.20;;;;;;6132740;23;20290;-89
2021/05/20 04:40:17;;;;;;;2.03;1.07;;;13.40;47.70;;;;;;6133613;23;20151;-90
2021/05/20 04:42:42;;;;;;;1.33;1.20;;;13.50;47.50;;;;;;6132548;23;20144;-87
2021/05/20 04:45:09;;;;;;;3.30;1.40;;;13.50;47.10;;;;;;6131743;23;20378;-87
2021/05/20 04:47:41;;;;;;;1.33;1.23;;;13.60;47.10;;;;;;6130791;23;20583;-87
2021/05/20 04:50:07;;;;;;;2.30;1.60;;;13.50;46.90;;;;;;6131719;23;20371;-89
2021/05/20 04:52:34;;;;;;;2.57;1.63;;;13.80;47.10;;;;;;6133212;23;20383;-90
2021/05/20 04:55:00;;;;;;;3.57;1.47;;;14.00;47.60;;;;;;6133460;23;20426;-89
2021/05/20 04:57:27;;;;;;;3.20;1.80;;;13.60;47.40;;;;;;6132987;23;20378;-89
2021/05/20 04:59:52;;;;;;;3.73;1.83;;;13.80;47.90;;;;;;6132244;23;20239;-85
2021/05/20 05:02:27;;;;;;;1.30;1.20;;;13.70;48.10;;;;;;6131806;23;20403;-88
2021/05/20 05:04:54;;;;;;;1.83;1.63;;;13.50;48.20;;;;;;6133141;23;20158;-89
2021/05/20 05:07:20;;;;;;;1.43;1.20;;;13.70;48.60;;;;;;6132738;23;20418;-87
2021/05/20 05:09:46;;;;;;;2.97;1.50;;;13.90;48.60;;;;;;6132455;23;20383;-89
2021/05/20 05:12:19;;;;;;;1.40;1.30;;;13.90;48.40;;;;;;6132831;23;20379;-88
2021/05/20 05:14:46;;;;;;;1.67;1.57;;;13.80;48.10;;;;;;6132307;23;20415;-89
2021/05/20 05:17:31;;;;;;;2.80;1.23;;;13.80;47.60;;;;;;6133071;23;20379;-88
2021/05/20 05:19:57;;;;;;;1.20;1.10;;;14.00;46.40;;;;;;6132999;23;20379;-89
2021/05/20 05:22:23;;;;;;;2.00;1.50;;;13.80;46.40;;;;;;6132638;23;20427;-90
2021/05/20 05:24:57;;;;;;;1.20;1.10;;;13.70;47.00;;;;;;6135183;23;20155;-89
2021/05/20 05:27:23;;;;;;;1.00;0.90;;;13.60;46.90;;;;;;6136213;23;20576;-89
2021/05/20 05:30:07;;;;;;;1.10;0.87;;;13.70;47.30;;;;;;6136355;23;20410;-88
2021/05/20 05:32:32;;;;;;;1.50;1.10;;;14.10;46.80;;;;;;6135440;23;20377;-90
2021/05/20 05:35:05;;;;;;;2.10;0.90;;;14.00;46.60;;;;;;6136700;23;20490;-89
2021/05/20 05:37:31;;;;;;;1.53;1.10;;;14.10;46.40;;;;;;6137795;23;20156;-89
2021/05/20 05:39:56;;;;;;;1.37;0.97;;;14.40;46.30;;;;;;6137657;23;20534;-88
2021/05/20 05:42:44;;;;;;;1.10;0.90;;;14.50;45.40;;;;;;6137594;23;20155;-89
2021/05/20 05:45:11;;;;;;;0.93;0.73;;;14.90;44.50;;;;;;6134225;23;20152;-84
2021/05/20 05:47:37;;;;;;;1.13;1.00;;;14.70;43.00;;;;;;6131968;23;20382;-84
2021/05/20 05:50:10;;;;;;;1.83;0.80;;;14.90;43.20;;;;;;6131995;23;20379;-84
2021/05/20 05:52:46;;;;;;;2.40;1.23;;;15.30;42.90;;;;;;6132187;23;20367;-84
2021/05/20 05:55:12;;;;;;;1.80;0.90;;;15.30;41.80;;;;;;6132251;23;20410;-84
2021/05/20 05:57:54;;;;;;;1.20;1.10;;;15.30;42.40;;;;;;6132046;23;20434;-85
2021/05/20 06:00:20;;;;;;;1.53;1.17;;;15.30;42.00;;;;;;6132153;23;20144;-85
2021/05/20 06:02:46;;;;;;;1.00;0.80;;;15.00;41.40;;;;;;6132172;23;20386;-84
2021/05/20 06:05:13;;;;;;;6.17;3.00;;;15.30;42.40;;;;;;6158104;23;20684;-85
2021/05/20 06:07:52;;;;;;;4.77;2.30;;;15.10;41.70;;;;;;6132009;23;20461;-85
2021/05/20 06:10:20;;;;;;;1.57;1.30;;;14.70;43.70;;;;;;6131877;23;20383;-85
2021/05/20 06:12:46;;;;;;;1.33;1.03;;;14.70;43.00;;;;;;6131814;23;20375;-85
2021/05/20 06:15:19;;;;;;;2.03;0.87;;;14.60;42.90;;;;;;6132510;23;20498;-84
2021/05/20 06:17:44;;;;;;;2.00;0.77;;;15.00;43.20;;;;;;6132115;23;20148;-85
2021/05/20 06:20:28;;;;;;;2.83;1.17;;;15.10;44.10;;;;;;6132192;23;20430;-84
2021/05/20 06:22:54;;;;;;;1.43;0.80;;;15.10;42.50;;;;;;6159028;23;20661;-85
2021/05/20 06:25:21;;;;;;;0.93;0.80;;;15.40;42.20;;;;;;6132278;23;20414;-85
2021/05/20 06:27:47;;;;;;;0.70;0.60;;;15.30;41.20;;;;;;6132297;23;20171;-85
2021/05/20 06:30:49;;;;;;;1.90;1.00;;;15.40;41.50;;;;;;6132431;23;20375;-84
2021/05/20 06:33:16;;;;;;;2.20;0.90;;;15.50;41.20;;;;;;6132221;23;20271;-84
2021/05/20 06:36:04;;;;;;;2.70;0.80;;;15.90;42.30;;;;;;6132124;23;20411;-85
2021/05/20 06:38:29;;;;;;;1.50;1.40;;;15.80;41.60;;;;;;6131873;23;20429;-85
2021/05/20 06:41:02;;;;;;;2.53;0.70;;;16.00;41.40;;;;;;6132095;23;20470;-85
2021/05/20 06:43:28;;;;;;;1.37;1.27;;;16.30;40.60;;;;;;6131966;23;20572;-85
2021/05/20 06:46:16;;;;;;;0.70;0.60;;;16.10;40.40;;;;;;6132566;23;20383;-89
2021/05/20 06:48:42;;;;;;;0.80;0.73;;;16.10;40.60;;;;;;6135512;23;20483;-89
2021/05/20 06:51:26;;;;;;;0.90;0.80;;;15.70;39.80;;;;;;6133193;23;20387;-88
2021/05/20 06:53:51;;;;;;;1.23;0.80;;;15.50;41.20;;;;;;6132882;23;20239;-89
2021/05/20 06:56:21;;;;;;;0.63;0.63;;;15.90;41.70;;;;;;6133179;23;20761;-91
2021/05/20 07:01:51;;;;;;;0.80;0.73;;;16.50;38.30;;;;;;6160739;23;20439;-91
2021/05/20 07:04:17;;;;;;;0.73;0.60;;;16.80;38.40;;;;;;6134560;23;20707;-91
2021/05/20 07:07:01;;;;;;;0.80;0.60;;;16.80;37.10;;;;;;6134907;23;20252;-91
2021/05/20 07:09:28;;;;;;;1.10;0.67;;;16.90;37.10;;;;;;6134325;23;20234;-87
2021/05/20 07:11:54;;;;;;;1.30;0.60;;;17.10;37.80;;;;;;6134479;23;20731;-92
2021/05/20 07:14:22;;;;;;;0.73;0.70;;;17.30;37.00;;;;;;6134951;23;20423;-91
2021/05/20 07:16:48;;;;;;;0.77;0.73;;;17.40;35.60;;;;;;6132858;23;20435;-89
2021/05/20 07:19:21;;;;;;;0.60;0.53;;;17.30;36.10;;;;;;6132159;23;20383;-94
2021/05/20 07:25:03;;;;;;;0.70;0.60;;;17.10;35.60;;;;;;6161306;23;20363;-95
2021/05/20 07:27:54;;;;;;;0.60;0.53;;;16.80;36.80;;;;;;6136597;23;20383;-94
2021/05/20 07:30:20;;;;;;;0.90;0.77;;;17.20;36.80;;;;;;6134787;23;20832;-93
2021/05/20 07:32:58;;;;;;;0.70;0.70;;;17.10;35.80;;;;;;6133942;23;20362;-94
2021/05/20 07:35:24;;;;;;;1.70;0.87;;;16.60;36.60;;;;;;6134807;23;20422;-94
2021/05/20 07:38:13;;;;;;;0.90;0.80;;;17.10;38.00;;;;;;6132454;23;20382;-92
2021/05/20 07:40:39;;;;;;;0.93;0.73;;;16.70;37.20;;;;;;6131798;23;20870;-93
2021/05/20 07:43:11;;;;;;;0.87;0.60;;;17.00;36.60;;;;;;6132665;23;20363;-92
2021/05/20 07:45:38;;;;;;;0.87;0.70;;;16.80;36.50;;;;;;6132395;23;20186;-96
2021/05/20 07:48:08;;;;;;;0.80;0.80;;;16.70;36.80;;;;;;6135927;23;20832;-94
2021/05/20 07:50:33;;;;;;;0.70;0.70;;;16.90;37.50;;;;;;6134274;23;20473;-92
2021/05/20 07:59:44;;;;;;;1.47;0.87;;;16.70;35.70;;;;;;6171328;23;20331;-90
2021/05/20 08:11:07;;;;;;;1.00;0.70;;;15.80;37.90;;;;;;6168201;23;20368;-88
2021/05/20 08:13:35;;;;;;;1.27;0.80;;;15.40;38.70;;;;;;6131016;23;20806;-87
2021/05/20 08:16:02;;;;;;;3.07;2.20;;;15.40;40.10;;;;;;6156641;23;20832;-90
2021/05/20 08:18:29;;;;;;;1.53;1.33;;;15.70;39.60;;;;;;6129647;23;20840;-90
2021/05/20 08:20:56;;;;;;;1.03;0.90;;;15.50;40.00;;;;;;6129855;23;20376;-90
2021/05/20 08:23:22;;;;;;;0.80;0.80;;;15.60;39.80;;;;;;6129644;23;20384;-89
2021/05/20 08:25:48;;;;;;;0.80;0.77;;;15.80;40.00;;;;;;6131554;23;20383;-90
2021/05/20 08:28:17;;;;;;;0.80;0.50;;;16.10;39.60;;;;;;6131498;23;20759;-91
2021/05/20 08:30:44;;;;;;;0.93;0.83;;;16.50;38.10;;;;;;6127562;23;20376;-89
2021/05/20 08:33:10;;;;;;;1.30;0.70;;;16.70;37.10;;;;;;6129474;23;20466;-90
2021/05/20 08:35:36;;;;;;;1.27;0.50;;;16.80;38.30;;;;;;6130714;23;20371;-90
2021/05/20 08:38:03;;;;;;;0.60;0.50;;;17.50;36.60;;;;;;6130438;23;20755;-88
2021/05/20 08:40:29;;;;;;;0.83;0.60;;;17.50;35.60;;;;;;6130557;23;20450;-90
2021/05/20 08:42:58;;;;;;;0.77;0.77;;;17.20;33.50;;;;;;6157312;23;20443;-88
2021/05/20 08:45:57;;;;;;;0.60;0.60;;;17.00;33.00;;;;;;6132513;23;20387;-91
2021/05/20 08:48:23;;;;;;;0.60;0.60;;;16.90;33.60;;;;;;6129896;23;20395;-90
2021/05/20 08:50:49;;;;;;;1.90;0.80;;;16.80;34.80;;;;;;6132252;23;20438;-90
2021/05/20 08:53:15;;;;;;;0.60;0.50;;;16.60;34.90;;;;;;6131511;23;20746;-93
2021/05/20 08:55:41;;;;;;;0.60;0.50;;;16.70;35.60;;;;;;6131627;23;20372;-90
2021/05/20 08:58:30;;;;;;;0.70;0.60;;;16.60;35.00;;;;;;6132147;23;20185;-90
2021/05/20 09:00:56;;;;;;;0.70;0.50;;;16.60;35.80;;;;;;6131781;23;20144;-88
2021/05/20 09:03:30;;;;;;;0.60;0.60;;;17.00;34.60;;;;;;6157863;23;20378;-88
2021/05/20 09:06:04;;;;;;;0.60;0.60;;;17.20;33.50;;;;;;6131861;23;20823;-90
2021/05/20 09:08:40;;;;;;;0.90;0.60;;;17.30;32.90;;;;;;6131456;23;20373;-88
2021/05/20 09:11:06;;;;;;;1.33;0.50;;;17.20;33.30;;;;;;6131365;23;20371;-88
2021/05/20 09:13:46;;;;;;;0.70;0.63;;;16.80;33.80;;;;;;6131698;23;20502;-88
2021/05/20 09:16:13;;;;;;;1.17;0.73;;;16.50;34.70;;;;;;6132453;23;20140;-90
2021/05/20 09:18:41;;;;;;;1.57;0.60;;;16.70;35.20;;;;;;6133023;23;20703;-90
2021/05/20 09:21:25;;;;;;;0.83;0.70;;;16.70;34.90;;;;;;6132390;23;20430;-89
2021/05/20 09:23:51;;;;;;;0.80;0.60;;;16.70;34.80;;;;;;6131709;23;20724;-90
2021/05/20 09:26:37;;;;;;;1.03;0.60;;;16.40;35.50;;;;;;6134362;23;20431;-92
2021/05/20 09:29:10;;;;;;;0.70;0.60;;;16.60;35.40;;;;;;6133198;23;20163;-91
2021/05/20 09:31:43;;;;;;;1.10;0.70;;;16.70;35.40;;;;;;6133474;23;20379;-91
2021/05/20 09:34:15;;;;;;;1.77;0.77;;;17.00;33.90;;;;;;6132227;23;20418;-90
2021/05/20 09:36:50;;;;;;;1.17;0.70;;;17.20;33.10;;;;;;6132011;23;20823;-91
2021/05/20 09:39:18;;;;;;;0.80;0.70;;;17.60;33.20;;;;;;6132653;23;20382;-91
2021/05/20 09:41:44;;;;;;;0.70;0.70;;;17.40;33.20;;;;;;6132262;23;20391;-91
2021/05/20 09:44:47;;;;;;;1.27;0.80;;;17.60;33.10;;;;;;6132191;23;20394;-89
2021/05/20 09:47:16;;;;;;;1.30;0.80;;;17.70;33.60;;;;;;6131666;23;20363;-90
2021/05/20 09:50:08;;;;;;;1.00;0.90;;;17.70;33.20;;;;;;6131720;23;20426;-90
2021/05/20 09:52:33;;;;;;;1.90;0.90;;;17.70;33.50;;;;;;6131407;23;20403;-89
2021/05/20 09:55:03;;;;;;;1.37;1.00;;;17.50;34.10;;;;;;6131388;23;20421;-90
2021/05/20 09:57:37;;;;;;;3.60;3.27;;;17.70;35.00;;;;;;6156875;23;20363;-91
2021/05/20 10:00:05;;;;;;;2.60;1.63;;;17.80;35.40;;;;;;6131750;23;20378;-89
2021/05/20 10:02:32;;;;;;;0.70;0.70;;;18.10;34.70;;;;;;6130577;23;20376;-91
2021/05/20 10:05:22;;;;;;;1.00;0.80;;;18.30;33.50;;;;;;6130248;23;20383;-91
2021/05/20 10:07:48;;;;;;;1.00;0.90;;;18.70;33.60;;;;;;6131317;23;20386;-91
2021/05/20 10:10:29;;;;;;;1.03;0.93;;;19.00;31.50;;;;;;6131307;23;20434;-90
2021/05/20 10:12:55;;;;;;;0.83;0.60;;;19.10;29.70;;;;;;6133161;23;20458;-90
2021/05/20 10:15:48;;;;;;;0.70;0.70;;;19.40;31.30;;;;;;6158076;23;20445;-90
2021/05/20 10:18:16;;;;;;;0.73;0.60;;;19.70;29.10;;;;;;6132965;23;20158;-90
2021/05/20 10:21:01;;;;;;;2.63;0.80;;;19.80;28.90;;;;;;6133206;23;20360;-89
2021/05/20 10:23:27;;;;;;;2.63;1.20;;;19.50;30.80;;;;;;6133318;23;20449;-89
2021/05/20 10:25:55;;;;;;;1.37;1.03;;;18.60;33.80;;;;;;6135596;23;20482;-91
2021/05/20 10:28:23;;;;;;;1.30;1.20;;;18.30;36.40;;;;;;6135900;23;20155;-91
2021/05/20 10:30:50;;;;;;;4.13;0.97;;;17.80;34.80;;;;;;6135221;23;20778;-90
2021/05/20 10:33:17;;;;;;;1.20;1.10;;;17.10;34.70;;;;;;6135529;23;20383;-91
2021/05/20 10:36:01;;;;;;;5.60;1.50;;;17.60;35.80;;;;;;6135095;23;20372;-92
2021/05/20 10:38:31;;;;;;;4.13;1.13;;;17.50;39.80;;;;;;6135621;23;20403;-91
2021/05/20 10:41:28;;;;;;;0.90;0.83;;;17.20;39.70;;;;;;6136005;23;20407;-91
2021/05/20 10:44:03;;;;;;;1.03;0.80;;;17.50;39.30;;;;;;6135458;23;20381;-92
2021/05/20 10:49:49;;;;;;;1.50;0.87;;;17.90;36.70;;;;;;6159616;23;20363;-93
2021/05/20 10:52:35;;;;;;;0.80;0.80;;;18.20;35.20;;;;;;6133346;23;20458;-89
2021/05/20 10:55:08;;;;;;;2.50;1.17;;;18.40;36.80;;;;;;6103559;23;20486;-92
2021/05/20 10:58:04;;;;;;;2.43;1.30;;;18.60;36.80;;;;;;6133200;23;20383;-91
2021/05/20 11:00:30;;;;;;;1.23;1.13;;;18.90;35.70;;;;;;6134311;23;20389;-90
2021/05/20 11:03:35;;;;;;;1.47;1.30;;;18.70;35.00;;;;;;6133020;23;20407;-91
2021/05/20 11:06:01;;;;;;;1.67;1.10;;;18.80;34.00;;;;;;6132502;23;20151;-89
2021/05/20 11:08:28;;;;;;;1.93;1.10;;;19.10;38.10;;;;;;6130718;23;20447;-92
2021/05/20 11:10:54;;;;;;;1.47;0.93;;;19.00;37.20;;;;;;6132865;23;20208;-92
2021/05/20 11:13:49;;;;;;;1.07;0.80;;;19.00;35.70;;;;;;6131817;23;20778;-91
2021/05/20 11:16:28;;;;;;;1.33;0.87;;;18.90;33.60;;;;;;6107869;23;20442;-87
2021/05/20 11:19:17;;;;;;;0.80;0.77;;;18.90;34.40;;;;;;6131554;23;20406;-90
2021/05/20 11:21:57;;;;;;;0.83;0.83;;;19.00;30.40;;;;;;6130529;23;20438;-87
2021/05/20 11:24:27;;;;;;;6.53;1.30;;;19.00;31.20;;;;;;6132074;23;20391;-90
2021/05/20 11:26:59;;;;;;;12.53;3.00;;;19.10;34.50;;;;;;6158964;23;20341;-91
2021/05/20 11:29:29;;;;;;;2.40;1.00;;;19.20;38.70;;;;;;6134154;23;20390;-90
2021/05/20 11:32:39;;;;;;;2.70;1.07;;;19.00;35.30;;;;;;6134222;23;20399;-92
2021/05/20 11:37:23;;;;;;;1.77;1.00;;;19.30;34.10;;;;;;6169369;23;20349;-91
2021/05/20 11:39:54;;;;;;;1.20;0.90;;;19.10;32.90;;;;;;6133519;23;20837;-93
2021/05/20 11:42:33;;;;;;;2.30;1.17;;;19.80;33.30;;;;;;6138747;23;20424;-93
2021/05/20 11:45:05;;;;;;;1.00;0.90;;;19.90;33.80;;;;;;6136648;23;20425;-92
2021/05/20 11:47:31;;;;;;;1.10;1.00;;;20.20;29.40;;;;;;6133949;23;20394;-92
2021/05/20 11:49:57;;;;;;;1.80;1.00;;;20.40;29.20;;;;;;6135118;23;20386;-92
2021/05/20 11:52:25;;;;;;;0.87;0.70;;;20.20;27.50;;;;;;6136014;23;20350;-92
2021/05/20 11:54:54;;;;;;;1.00;0.90;;;20.10;30.90;;;;;;6131887;23;20890;-92
2021/05/20 11:57:24;;;;;;;0.90;0.80;;;19.80;28.60;;;;;;6133958;23;20389;-92
2021/05/20 11:59:55;;;;;;;0.80;0.80;;;19.60;28.20;;;;;;6134396;23;20402;-91
2021/05/20 12:02:27;;;;;;;1.90;0.70;;;19.70;29.20;;;;;;6135255;23;20365;-92
2021/05/20 12:05:05;;;;;;;0.80;0.73;;;20.00;29.60;;;;;;6135060;23;20410;-90
2021/05/20 12:07:33;;;;;;;1.07;0.60;;;20.00;28.00;;;;;;6133392;23;20372;-91
2021/05/20 12:10:15;;;;;;;1.53;0.80;;;19.90;27.80;;;;;;6132306;23;20380;-92
2021/05/20 12:12:44;;;;;;;1.03;0.80;;;19.70;27.10;;;;;;6133527;23;20375;-92
2021/05/20 12:15:13;;;;;;;0.70;0.67;;;19.20;28.60;;;;;;6135323;23;20438;-92
2021/05/20 12:17:39;;;;;;;0.60;0.60;;;19.50;27.70;;;;;;6132545;23;20391;-92
2021/05/20 12:20:06;;;;;;;0.70;0.60;;;19.10;28.90;;;;;;6133262;23;20385;-93
2021/05/20 12:22:32;;;;;;;0.97;0.80;;;18.80;30.20;;;;;;6112445;23;20232;-92
2021/05/20 12:25:08;;;;;;;0.80;0.80;;;18.60;30.60;;;;;;6102472;23;20393;-92
2021/05/20 12:27:36;;;;;;;0.90;0.80;;;18.30;30.80;;;;;;6102661;23;20419;-91
2021/05/20 12:30:08;;;;;;;1.00;0.90;;;18.10;30.20;;;;;;6102233;23;20388;-91
2021/05/20 12:32:46;;;;;;;0.70;0.60;;;18.10;30.70;;;;;;6103528;23;20788;-92
2021/05/20 12:35:19;;;;;;;1.10;0.70;;;17.80;30.80;;;;;;6102470;23;20843;-92
2021/05/20 12:37:51;;;;;;;0.87;0.70;;;17.80;31.60;;;;;;6104210;23;20384;-91
2021/05/20 12:40:23;;;;;;;1.23;0.77;;;18.10;32.00;;;;;;6101870;23;20462;-92
2021/05/20 12:43:02;;;;;;;1.17;0.50;;;18.40;31.40;;;;;;6107499;23;20380;-93
2021/05/20 12:45:29;;;;;;;0.70;0.57;;;18.90;30.40;;;;;;6105717;23;20767;-93
2021/05/20 12:47:56;;;;;;;1.07;0.70;;;19.20;29.30;;;;;;6102564;23;20461;-92
2021/05/20 12:50:37;;;;;;;1.13;0.60;;;19.50;28.90;;;;;;6101793;23;20381;-90
2021/05/20 12:53:04;;;;;;;1.73;0.60;;;19.80;28.00;;;;;;6101159;23;20416;-91
2021/05/20 12:55:39;;;;;;;1.33;0.60;;;19.90;27.70;;;;;;6101659;23;20385;-89
2021/05/20 12:58:05;;;;;;;1.60;0.70;;;20.00;26.70;;;;;;6127180;23;20693;-89
2021/05/20 13:00:59;;;;;;;0.90;0.60;;;20.20;27.40;;;;;;6100466;23;20380;-91
2021/05/20 13:03:47;;;;;;;2.97;0.60;;;20.50;25.70;;;;;;6101646;23;20372;-91
2021/05/20 13:06:22;;;;;;;1.00;0.60;;;19.80;26.40;;;;;;6101093;23;20359;-89
2021/05/20 13:08:48;;;;;;;1.27;0.73;;;19.80;27.70;;;;;;6101351;23;20383;-89
2021/05/20 13:11:30;;;;;;;0.67;0.63;;;20.10;27.40;;;;;;6102311;23;20702;-92
2021/05/20 13:16:55;;;;;;;0.90;0.70;;;19.80;26.70;;;;;;6138315;23;20355;-92
2021/05/20 13:24:54;;;;;;;0.60;0.50;;;19.30;27.10;;;;;;6166589;23;20474;-90
2021/05/20 13:27:21;;;;;;;0.60;0.50;;;19.90;26.30;;;;;;6155613;23;20354;-89
2021/05/20 13:29:51;;;;;;;0.60;0.40;;;19.60;26.30;;;;;;6155549;23;20378;-90
2021/05/20 13:34:44;;;;;;;0.60;0.50;;;19.70;27.00;;;;;;6167443;23;20411;-89
2021/05/20 13:37:10;;;;;;;1.50;0.60;;;19.70;26.30;;;;;;6154560;23;20350;-89
2021/05/20 13:39:36;;;;;;;0.80;0.50;;;19.80;27.30;;;;;;6154510;23;20373;-90
2021/05/20 13:42:02;;;;;;;0.77;0.77;;;20.80;27.50;;;;;;6155780;23;20379;-90
2021/05/20 13:44:28;;;;;;;0.60;0.60;;;20.30;25.50;;;;;;6156542;23;20230;-90
2021/05/20 13:46:54;;;;;;;0.80;0.60;;;19.90;26.00;;;;;;6157812;23;20878;-89
2021/05/20 13:49:20;;;;;;;0.90;0.60;;;19.60;26.50;;;;;;6158728;23;20234;-89
2021/05/20 13:51:49;;;;;;;0.90;0.60;;;19.70;27.70;;;;;;6157985;23;20241;-89
2021/05/20 13:54:15;;;;;;;0.60;0.60;;;19.70;26.00;;;;;;6158587;23;20933;-90
2021/05/20 13:56:40;;;;;;;0.80;0.80;;;20.00;27.50;;;;;;6157987;23;20372;-89
2021/05/20 13:59:08;;;;;;;0.80;0.70;;;19.70;26.20;;;;;;6157596;23;20147;-89
2021/05/20 14:01:37;;;;;;;0.93;0.60;;;19.70;27.00;;;;;;6158293;23;20226;-90
2021/05/20 14:04:10;;;;;;;1.47;0.77;;;19.70;27.00;;;;;;6158904;23;20853;-89
2021/05/20 14:06:37;;;;;;;1.27;0.60;;;19.40;27.00;;;;;;6156923;23;20539;-88
2021/05/20 14:09:04;;;;;;;0.67;0.60;;;19.80;26.40;;;;;;6155509;23;20397;-89
2021/05/20 14:11:30;;;;;;;0.57;0.47;;;19.80;25.00;;;;;;6157287;23;20410;-89
2021/05/20 14:13:57;;;;;;;0.87;0.77;;;19.90;25.50;;;;;;6159132;23;20415;-90
2021/05/20 14:16:23;;;;;;;1.03;0.70;;;20.00;24.60;;;;;;6160436;23;20375;-92
2021/05/20 14:19:02;;;;;;;1.33;0.60;;;20.00;24.60;;;;;;6163283;23;20395;-92
2021/05/20 14:21:31;;;;;;;1.37;0.60;;;19.90;24.50;;;;;;6161863;23;20433;-90
2021/05/20 14:23:56;;;;;;;1.33;1.10;;;19.70;25.10;;;;;;6159652;23;20697;-92
2021/05/20 14:26:25;;;;;;;1.33;0.90;;;19.50;25.90;;;;;;6162652;23;20417;-95
2021/05/20 14:28:50;;;;;;;0.80;0.80;;;19.40;27.30;;;;;;6161470;23;20162;-89
2021/05/20 14:31:20;;;;;;;3.70;1.10;;;19.40;27.80;;;;;;6160805;23;20835;-89
2021/05/20 14:33:46;;;;;;;0.87;0.60;;;19.30;27.70;;;;;;6160630;23;20220;-89
2021/05/20 14:36:17;;;;;;;1.00;0.83;;;19.40;28.60;;;;;;6160597;23;20368;-91
2021/05/20 14:38:44;;;;;;;1.77;1.10;;;19.40;29.30;;;;;;6159653;23;20411;-90
2021/05/20 14:41:10;;;;;;;1.53;1.20;;;18.90;29.20;;;;;;6135765;23;20372;-93
2021/05/20 14:43:36;;;;;;;1.10;0.90;;;19.00;29.50;;;;;;6159315;23;20470;-89
2021/05/20 14:46:03;;;;;;;0.90;0.80;;;19.30;29.80;;;;;;6159667;23;20402;-91